sensor_id;sensor_type;location;lat;lon;timestamp;temperature;humidity
15700;DHT22;7950;42.744;23.174;2022-11-20T00:01:37;18.10;99.90
15700;DHT22;7950;42.744;23.174;2022-11-20T00:04:05;18.10;99.90
15700;DHT22;7950;42.744;23.174;2022-11-20T00:06:34;18.00;99.90
15700;DHT22;7950;42.744;23.174;2022-11-20T00:09:03;17.90;99.90
15700;DHT22;7950;42.744;23.174;2022-11-20T00:11:32;17.90;99.90
15700;DHT22;7950;42.744;23.174;2022-11-20T00:14:01;17.90;99.90
15700;DHT22;7950;42.744;23.174;2022-11-20T00:16:55;18.00;99.90
15700;DHT22;7950;42.744;23.174;2022-11-20T00:19:31;17.90;99.90
15700;DHT22;7950;42.744;23.174;2022-11-20T00:21:59;17.90;99.90
15700;DHT22;7950;42.744;23.174;2022-11-20T00:24:29;17.90;99.90
15700;DHT22;7950;42.744;23.174;2022-11-20T00:26:57;17.90;99.90
15700;DHT22;7950;42.744;23.174;2022-11-20T00:29:25;17.90;99.90
15700;DHT22;7950;42.744;23.174;2022-11-20T00:31:54;17.90;99.90
15700;DHT22;7950;42.744;23.174;2022-11-20T00:34:22;17.80;99.90
15700;DHT22;7950;42.744;23.174;2022-11-20T00:36:50;17.70;99.90
15700;DHT22;7950;42.744;23.174;2022-11-20T00:39:18;17.70;99.90
15700;DHT22;7950;42.744;23.174;2022-11-20T00:41:49;17.70;99.90
15700;DHT22;7950;42.744;23.174;2022-11-20T00:44:17;17.60;99.90
15700;DHT22;7950;42.744;23.174;2022-11-20T00:46:45;17.70;99.90
15700;DHT22;7950;42.744;23.174;2022-11-20T00:49:13;17.70;99.90
15700;DHT22;7950;42.744;23.174;2022-11-20T00:51:42;17.60;99.90
15700;DHT22;7950;42.744;23.174;2022-11-20T00:54:10;17.50;99.90
15700;DHT22;7950;42.744;23.174;2022-11-20T00:56:38;17.50;99.90
15700;DHT22;7950;42.744;23.174;2022-11-20T00:59:09;17.50;99.90
15700;DHT22;7950;42.744;23.174;2022-11-20T01:01:38;17.50;99.90
15700;DHT22;7950;42.744;23.174;2022-11-20T01:04:06;17.40;99.90
15700;DHT22;7950;42.744;23.174;2022-11-20T01:06:37;17.50;99.90
15700;DHT22;7950;42.744;23.174;2022-11-20T01:09:07;17.50;99.90
15700;DHT22;7950;42.744;23.174;2022-11-20T01:12:04;17.50;99.90
15700;DHT22;7950;42.744;23.174;2022-11-20T01:14:35;17.50;99.90
15700;DHT22;7950;42.744;23.174;2022-11-20T01:17:03;17.50;99.90
15700;DHT22;7950;42.744;23.174;2022-11-20T01:19:31;17.50;99.90
15700;DHT22;7950;42.744;23.174;2022-11-20T01:22:00;17.50;99.90
15700;DHT22;7950;42.744;23.174;2022-11-20T01:24:28;17.40;99.90
15700;DHT22;7950;42.744;23.174;2022-11-20T01:26:56;17.50;99.90
15700;DHT22;7950;42.744;23.174;2022-11-20T01:29:25;17.50;99.90
15700;DHT22;7950;42.744;23.174;2022-11-20T01:31:54;17.50;99.90
15700;DHT22;7950;42.744;23.174;2022-11-20T01:34:48;17.50;99.90
15700;DHT22;7950;42.744;23.174;2022-11-20T01:37:32;17.50;99.90
15700;DHT22;7950;42.744;23.174;2022-11-20T01:40:00;17.50;99.90
15700;DHT22;7950;42.744;23.174;2022-11-20T01:42:28;17.50;99.90
15700;DHT22;7950;42.744;23.174;2022-11-20T01:45:50;17.50;99.90
15700;DHT22;7950;42.744;23.174;2022-11-20T01:48:28;17.50;99.90
15700;DHT22;7950;42.744;23.174;2022-11-20T01:50:58;17.50;99.90
15700;DHT22;7950;42.744;23.174;2022-11-20T01:53:30;17.50;99.90
15700;DHT22;7950;42.744;23.174;2022-11-20T01:56:03;17.60;99.90
15700;DHT22;7950;42.744;23.174;2022-11-20T01:58:36;17.60;99.90
15700;DHT22;7950;42.744;23.174;2022-11-20T02:01:05;17.60;99.90
15700;DHT22;7950;42.744;23.174;2022-11-20T02:03:35;17.60;99.90
15700;DHT22;7950;42.744;23.174;2022-11-20T02:06:08;17.50;99.90
15700;DHT22;7950;42.744;23.174;2022-11-20T02:08:38;17.50;99.90
15700;DHT22;7950;42.744;23.174;2022-11-20T02:11:07;17.50;99.90
15700;DHT22;7950;42.744;23.174;2022-11-20T02:13:36;17.50;99.90
15700;DHT22;7950;42.744;23.174;2022-11-20T02:16:15;17.60;99.90
15700;DHT22;7950;42.744;23.174;2022-11-20T02:18:46;17.60;99.90
15700;DHT22;7950;42.744;23.174;2022-11-20T02:21:29;17.60;99.90
15700;DHT22;7950;42.744;23.174;2022-11-20T02:24:03;17.60;99.90
15700;DHT22;7950;42.744;23.174;2022-11-20T02:26:35;17.60;99.90
15700;DHT22;7950;42.744;23.174;2022-11-20T02:29:06;17.60;99.90
15700;DHT22;7950;42.744;23.174;2022-11-20T02:31:37;17.60;99.90
15700;DHT22;7950;42.744;23.174;2022-11-20T02:34:06;17.60;99.90
15700;DHT22;7950;42.744;23.174;2022-11-20T02:36:35;17.60;99.90
15700;DHT22;7950;42.744;23.174;2022-11-20T02:39:06;17.60;99.90
15700;DHT22;7950;42.744;23.174;2022-11-20T02:41:36;17.60;99.90
15700;DHT22;7950;42.744;23.174;2022-11-20T02:44:07;17.60;99.90
15700;DHT22;7950;42.744;23.174;2022-11-20T02:46:36;17.60;99.90
15700;DHT22;7950;42.744;23.174;2022-11-20T02:49:05;17.60;99.90
15700;DHT22;7950;42.744;23.174;2022-11-20T02:51:58;17.70;99.90
15700;DHT22;7950;42.744;23.174;2022-11-20T02:54:27;17.60;99.90
15700;DHT22;7950;42.744;23.174;2022-11-20T02:56:56;17.60;99.90
15700;DHT22;7950;42.744;23.174;2022-11-20T02:59:50;17.60;99.90
15700;DHT22;7950;42.744;23.174;2022-11-20T03:02:43;17.60;99.90
15700;DHT22;7950;42.744;23.174;2022-11-20T03:05:11;17.50;99.90
15700;DHT22;7950;42.744;23.174;2022-11-20T03:07:40;17.50;99.90
15700;DHT22;7950;42.744;23.174;2022-11-20T03:10:10;17.40;99.90
15700;DHT22;7950;42.744;23.174;2022-11-20T03:12:38;17.40;99.90
15700;DHT22;7950;42.744;23.174;2022-11-20T03:15:07;17.40;99.90
15700;DHT22;7950;42.744;23.174;2022-11-20T03:17:36;17.40;99.90
15700;DHT22;7950;42.744;23.174;2022-11-20T03:20:05;17.30;99.90
15700;DHT22;7950;42.744;23.174;2022-11-20T03:22:33;17.30;99.90
15700;DHT22;7950;42.744;23.174;2022-11-20T03:25:02;17.30;99.90
15700;DHT22;7950;42.744;23.174;2022-11-20T03:27:34;17.30;99.90
15700;DHT22;7950;42.744;23.174;2022-11-20T03:30:03;17.30;99.90
15700;DHT22;7950;42.744;23.174;2022-11-20T03:32:32;17.20;99.90
15700;DHT22;7950;42.744;23.174;2022-11-20T03:35:00;17.20;99.90
15700;DHT22;7950;42.744;23.174;2022-11-20T03:37:28;17.10;99.90
15700;DHT22;7950;42.744;23.174;2022-11-20T03:39:57;17.10;99.90
15700;DHT22;7950;42.744;23.174;2022-11-20T03:42:25;17.10;99.90
15700;DHT22;7950;42.744;23.174;2022-11-20T03:45:12;17.10;99.90
15700;DHT22;7950;42.744;23.174;2022-11-20T03:47:41;17.10;99.90
15700;DHT22;7950;42.744;23.174;2022-11-20T03:50:11;17.10;99.90
15700;DHT22;7950;42.744;23.174;2022-11-20T03:52:40;17.10;99.90
15700;DHT22;7950;42.744;23.174;2022-11-20T03:55:09;17.10;99.90
15700;DHT22;7950;42.744;23.174;2022-11-20T03:57:37;17.10;99.90
15700;DHT22;7950;42.744;23.174;2022-11-20T04:00:06;17.10;99.90
15700;DHT22;7950;42.744;23.174;2022-11-20T04:02:36;17.00;99.90
15700;DHT22;7950;42.744;23.174;2022-11-20T04:05:05;17.00;99.90
15700;DHT22;7950;42.744;23.174;2022-11-20T04:07:34;17.00;99.90
15700;DHT22;7950;42.744;23.174;2022-11-20T04:10:03;17.00;99.90
15700;DHT22;7950;42.744;23.174;2022-11-20T04:12:32;17.00;99.90
15700;DHT22;7950;42.744;23.174;2022-11-20T04:15:01;16.90;99.90
15700;DHT22;7950;42.744;23.174;2022-11-20T04:17:29;16.80;99.90
15700;DHT22;7950;42.744;23.174;2022-11-20T04:19:59;16.90;99.90
15700;DHT22;7950;42.744;23.174;2022-11-20T04:22:27;16.90;99.90
15700;DHT22;7950;42.744;23.174;2022-11-20T04:24:55;16.90;99.90
15700;DHT22;7950;42.744;23.174;2022-11-20T04:27:24;16.90;99.90
15700;DHT22;7950;42.744;23.174;2022-11-20T04:29:52;16.90;99.90
15700;DHT22;7950;42.744;23.174;2022-11-20T04:32:20;16.90;99.90
15700;DHT22;7950;42.744;23.174;2022-11-20T04:34:48;16.90;99.90
15700;DHT22;7950;42.744;23.174;2022-11-20T04:37:18;16.90;99.90
15700;DHT22;7950;42.744;23.174;2022-11-20T04:39:46;17.00;99.90
15700;DHT22;7950;42.744;23.174;2022-11-20T04:42:14;17.00;99.90
15700;DHT22;7950;42.744;23.174;2022-11-20T04:44:58;16.90;99.90
15700;DHT22;7950;42.744;23.174;2022-11-20T04:47:26;16.90;99.90
15700;DHT22;7950;42.744;23.174;2022-11-20T04:49:55;16.90;99.90
15700;DHT22;7950;42.744;23.174;2022-11-20T04:52:24;16.80;99.90
15700;DHT22;7950;42.744;23.174;2022-11-20T04:55:18;16.80;99.90
15700;DHT22;7950;42.744;23.174;2022-11-20T04:57:50;16.70;99.90
15700;DHT22;7950;42.744;23.174;2022-11-20T05:00:18;16.70;99.90
15700;DHT22;7950;42.744;23.174;2022-11-20T05:02:47;16.70;99.90
15700;DHT22;7950;42.744;23.174;2022-11-20T05:05:15;16.60;99.90
15700;DHT22;7950;42.744;23.174;2022-11-20T05:07:45;16.60;99.90
15700;DHT22;7950;42.744;23.174;2022-11-20T05:10:13;16.60;99.90
15700;DHT22;7950;42.744;23.174;2022-11-20T05:13:01;16.50;99.90
15700;DHT22;7950;42.744;23.174;2022-11-20T05:15:33;16.50;99.90
15700;DHT22;7950;42.744;23.174;2022-11-20T05:18:01;16.40;99.90
15700;DHT22;7950;42.744;23.174;2022-11-20T05:20:29;16.40;99.90
15700;DHT22;7950;42.744;23.174;2022-11-20T05:22:59;16.40;99.90
15700;DHT22;7950;42.744;23.174;2022-11-20T05:25:27;16.30;99.90
15700;DHT22;7950;42.744;23.174;2022-11-20T05:27:59;16.30;99.90
15700;DHT22;7950;42.744;23.174;2022-11-20T05:30:27;16.30;99.90
15700;DHT22;7950;42.744;23.174;2022-11-20T05:32:55;16.30;99.90
15700;DHT22;7950;42.744;23.174;2022-11-20T05:35:23;16.20;99.90
15700;DHT22;7950;42.744;23.174;2022-11-20T05:37:51;16.20;99.90
15700;DHT22;7950;42.744;23.174;2022-11-20T05:40:21;16.20;99.90
15700;DHT22;7950;42.744;23.174;2022-11-20T05:42:49;16.10;99.90
15700;DHT22;7950;42.744;23.174;2022-11-20T05:45:17;16.20;99.90
15700;DHT22;7950;42.744;23.174;2022-11-20T05:47:46;16.10;99.90
15700;DHT22;7950;42.744;23.174;2022-11-20T05:50:14;16.10;99.90
15700;DHT22;7950;42.744;23.174;2022-11-20T05:52:43;16.10;99.90
15700;DHT22;7950;42.744;23.174;2022-11-20T05:55:11;16.10;99.90
15700;DHT22;7950;42.744;23.174;2022-11-20T05:57:41;16.10;99.90
15700;DHT22;7950;42.744;23.174;2022-11-20T06:00:10;16.20;99.90
15700;DHT22;7950;42.744;23.174;2022-11-20T06:02:39;16.20;99.90
15700;DHT22;7950;42.744;23.174;2022-11-20T06:05:08;16.20;99.90
15700;DHT22;7950;42.744;23.174;2022-11-20T06:07:36;16.20;99.90
15700;DHT22;7950;42.744;23.174;2022-11-20T06:10:05;16.20;99.90
15700;DHT22;7950;42.744;23.174;2022-11-20T06:12:33;16.20;99.90
15700;DHT22;7950;42.744;23.174;2022-11-20T06:15:03;16.30;99.90
15700;DHT22;7950;42.744;23.174;2022-11-20T06:17:31;16.30;99.90
15700;DHT22;7950;42.744;23.174;2022-11-20T06:20:00;16.30;99.90
15700;DHT22;7950;42.744;23.174;2022-11-20T06:22:28;16.20;99.90
15700;DHT22;7950;42.744;23.174;2022-11-20T06:24:56;16.30;99.90
15700;DHT22;7950;42.744;23.174;2022-11-20T06:27:24;16.40;99.90
15700;DHT22;7950;42.744;23.174;2022-11-20T06:29:56;16.50;99.90
15700;DHT22;7950;42.744;23.174;2022-11-20T06:32:25;16.60;99.90
15700;DHT22;7950;42.744;23.174;2022-11-20T06:34:53;16.60;99.90
15700;DHT22;7950;42.744;23.174;2022-11-20T06:37:24;16.70;99.90
15700;DHT22;7950;42.744;23.174;2022-11-20T06:39:52;16.70;99.90
15700;DHT22;7950;42.744;23.174;2022-11-20T06:42:20;16.80;99.90
15700;DHT22;7950;42.744;23.174;2022-11-20T06:44:51;17.30;99.90
15700;DHT22;7950;42.744;23.174;2022-11-20T06:47:20;17.80;99.90
15700;DHT22;7950;42.744;23.174;2022-11-20T06:49:49;18.20;99.90
15700;DHT22;7950;42.744;23.174;2022-11-20T06:52:17;18.60;99.90
15700;DHT22;7950;42.744;23.174;2022-11-20T06:54:46;19.00;99.90
15700;DHT22;7950;42.744;23.174;2022-11-20T06:57:14;18.60;99.90
15700;DHT22;7950;42.744;23.174;2022-11-20T07:00:08;18.00;99.90
15700;DHT22;7950;42.744;23.174;2022-11-20T07:02:36;18.00;99.90
15700;DHT22;7950;42.744;23.174;2022-11-20T07:05:06;18.10;99.90
15700;DHT22;7950;42.744;23.174;2022-11-20T07:07:35;18.20;99.90
15700;DHT22;7950;42.744;23.174;2022-11-20T07:10:04;18.10;99.90
15700;DHT22;7950;42.744;23.174;2022-11-20T07:12:32;18.00;99.90
15700;DHT22;7950;42.744;23.174;2022-11-20T07:15:00;17.70;99.90
15700;DHT22;7950;42.744;23.174;2022-11-20T07:17:29;17.40;99.90
15700;DHT22;7950;42.744;23.174;2022-11-20T07:19:57;17.20;99.90
15700;DHT22;7950;42.744;23.174;2022-11-20T07:22:27;17.10;99.90
15700;DHT22;7950;42.744;23.174;2022-11-20T07:24:55;17.00;99.90
15700;DHT22;7950;42.744;23.174;2022-11-20T07:27:23;16.90;99.90
15700;DHT22;7950;42.744;23.174;2022-11-20T07:29:51;16.80;99.90
15700;DHT22;7950;42.744;23.174;2022-11-20T07:32:24;16.80;99.90
15700;DHT22;7950;42.744;23.174;2022-11-20T07:34:52;16.70;99.90
15700;DHT22;7950;42.744;23.174;2022-11-20T07:37:21;16.70;99.90
15700;DHT22;7950;42.744;23.174;2022-11-20T07:39:50;16.60;99.90
15700;DHT22;7950;42.744;23.174;2022-11-20T07:42:18;16.70;99.90
15700;DHT22;7950;42.744;23.174;2022-11-20T07:44:47;16.60;99.90
15700;DHT22;7950;42.744;23.174;2022-11-20T07:47:15;16.60;99.90
15700;DHT22;7950;42.744;23.174;2022-11-20T07:49:43;16.60;99.90
15700;DHT22;7950;42.744;23.174;2022-11-20T07:52:11;16.60;99.90
15700;DHT22;7950;42.744;23.174;2022-11-20T07:54:40;16.60;99.90
15700;DHT22;7950;42.744;23.174;2022-11-20T07:57:09;16.60;99.90
15700;DHT22;7950;42.744;23.174;2022-11-20T07:59:38;16.70;99.90
15700;DHT22;7950;42.744;23.174;2022-11-20T08:02:09;16.70;99.90
15700;DHT22;7950;42.744;23.174;2022-11-20T08:04:38;16.60;99.90
15700;DHT22;7950;42.744;23.174;2022-11-20T08:07:06;16.70;99.90
15700;DHT22;7950;42.744;23.174;2022-11-20T08:09:35;16.60;99.90
15700;DHT22;7950;42.744;23.174;2022-11-20T08:12:03;16.70;99.90
15700;DHT22;7950;42.744;23.174;2022-11-20T08:14:50;16.70;99.90
15700;DHT22;7950;42.744;23.174;2022-11-20T08:17:18;16.90;99.90
15700;DHT22;7950;42.744;23.174;2022-11-20T08:19:46;17.10;99.90
15700;DHT22;7950;42.744;23.174;2022-11-20T08:22:14;17.30;99.90
15700;DHT22;7950;42.744;23.174;2022-11-20T08:24:44;17.30;99.90
15700;DHT22;7950;42.744;23.174;2022-11-20T08:27:12;17.30;99.90
15700;DHT22;7950;42.744;23.174;2022-11-20T08:29:40;17.20;99.90
15700;DHT22;7950;42.744;23.174;2022-11-20T08:32:10;17.10;99.90
15700;DHT22;7950;42.744;23.174;2022-11-20T08:34:43;17.00;99.90
15700;DHT22;7950;42.744;23.174;2022-11-20T08:37:12;16.80;99.90
15700;DHT22;7950;42.744;23.174;2022-11-20T08:43:24;16.70;99.90
15700;DHT22;7950;42.744;23.174;2022-11-20T08:45:52;16.60;99.90
15700;DHT22;7950;42.744;23.174;2022-11-20T08:48:22;16.50;99.90
15700;DHT22;7950;42.744;23.174;2022-11-20T08:50:50;16.30;99.90
15700;DHT22;7950;42.744;23.174;2022-11-20T08:53:18;16.20;99.90
15700;DHT22;7950;42.744;23.174;2022-11-20T08:55:47;16.10;99.90
15700;DHT22;7950;42.744;23.174;2022-11-20T08:58:15;16.00;99.90
15700;DHT22;7950;42.744;23.174;2022-11-20T09:00:43;15.90;99.90
15700;DHT22;7950;42.744;23.174;2022-11-20T09:03:12;15.80;99.90
15700;DHT22;7950;42.744;23.174;2022-11-20T09:05:42;15.80;99.90
15700;DHT22;7950;42.744;23.174;2022-11-20T09:08:10;15.80;99.90
15700;DHT22;7950;42.744;23.174;2022-11-20T09:10:39;15.80;99.90
15700;DHT22;7950;42.744;23.174;2022-11-20T09:13:07;15.80;99.90
15700;DHT22;7950;42.744;23.174;2022-11-20T09:15:36;15.80;99.90
15700;DHT22;7950;42.744;23.174;2022-11-20T09:18:04;15.70;99.90
15700;DHT22;7950;42.744;23.174;2022-11-20T09:20:32;15.70;99.90
15700;DHT22;7950;42.744;23.174;2022-11-20T09:23:02;15.60;99.90
15700;DHT22;7950;42.744;23.174;2022-11-20T09:25:30;15.60;99.90
15700;DHT22;7950;42.744;23.174;2022-11-20T09:27:59;15.60;99.90
15700;DHT22;7950;42.744;23.174;2022-11-20T09:30:27;15.60;99.90
15700;DHT22;7950;42.744;23.174;2022-11-20T09:32:56;15.70;99.90
15700;DHT22;7950;42.744;23.174;2022-11-20T09:35:24;15.70;99.90
15700;DHT22;7950;42.744;23.174;2022-11-20T09:37:52;15.80;99.90
15700;DHT22;7950;42.744;23.174;2022-11-20T09:40:23;15.90;99.90
15700;DHT22;7950;42.744;23.174;2022-11-20T09:42:56;16.00;99.90
15700;DHT22;7950;42.744;23.174;2022-11-20T09:45:37;16.10;99.90
15700;DHT22;7950;42.744;23.174;2022-11-20T09:48:27;16.20;99.90
15700;DHT22;7950;42.744;23.174;2022-11-20T09:51:05;16.30;99.90
15700;DHT22;7950;42.744;23.174;2022-11-20T09:53:40;16.30;99.90
15700;DHT22;7950;42.744;23.174;2022-11-20T09:56:11;16.30;99.90
15700;DHT22;7950;42.744;23.174;2022-11-20T09:58:50;16.30;99.90
15700;DHT22;7950;42.744;23.174;2022-11-20T10:01:21;16.40;99.90
15700;DHT22;7950;42.744;23.174;2022-11-20T10:03:54;16.50;99.90
15700;DHT22;7950;42.744;23.174;2022-11-20T10:06:28;16.60;99.90
15700;DHT22;7950;42.744;23.174;2022-11-20T10:09:13;16.70;99.90
15700;DHT22;7950;42.744;23.174;2022-11-20T10:11:54;16.80;99.90
15700;DHT22;7950;42.744;23.174;2022-11-20T10:14:33;16.90;99.90
15700;DHT22;7950;42.744;23.174;2022-11-20T10:17:13;17.00;99.90
15700;DHT22;7950;42.744;23.174;2022-11-20T10:19:55;17.00;99.90
15700;DHT22;7950;42.744;23.174;2022-11-20T10:22:40;17.00;99.90
15700;DHT22;7950;42.744;23.174;2022-11-20T10:25:14;17.10;99.90
15700;DHT22;7950;42.744;23.174;2022-11-20T10:28:00;17.10;99.90
15700;DHT22;7950;42.744;23.174;2022-11-20T10:30:36;17.00;99.90
15700;DHT22;7950;42.744;23.174;2022-11-20T10:33:13;16.90;99.90
15700;DHT22;7950;42.744;23.174;2022-11-20T10:35:45;16.80;99.90
15700;DHT22;7950;42.744;23.174;2022-11-20T10:38:19;16.60;99.90
15700;DHT22;7950;42.744;23.174;2022-11-20T10:40:52;16.40;99.90
15700;DHT22;7950;42.744;23.174;2022-11-20T10:43:43;16.30;99.90
15700;DHT22;7950;42.744;23.174;2022-11-20T10:46:15;16.10;99.90
15700;DHT22;7950;42.744;23.174;2022-11-20T10:48:45;16.00;99.90
15700;DHT22;7950;42.744;23.174;2022-11-20T10:51:21;15.90;99.90
15700;DHT22;7950;42.744;23.174;2022-11-20T10:53:58;15.70;99.90
15700;DHT22;7950;42.744;23.174;2022-11-20T10:56:32;15.20;99.90
15700;DHT22;7950;42.744;23.174;2022-11-20T10:59:33;14.50;99.90
15700;DHT22;7950;42.744;23.174;2022-11-20T11:02:15;13.90;99.90
15700;DHT22;7950;42.744;23.174;2022-11-20T11:04:45;13.70;99.90
15700;DHT22;7950;42.744;23.174;2022-11-20T11:07:17;13.70;99.90
15700;DHT22;7950;42.744;23.174;2022-11-20T11:09:49;13.70;99.90
15700;DHT22;7950;42.744;23.174;2022-11-20T11:12:19;13.70;99.90
15700;DHT22;7950;42.744;23.174;2022-11-20T11:14:52;13.60;99.90
15700;DHT22;7950;42.744;23.174;2022-11-20T11:17:26;13.50;99.90
15700;DHT22;7950;42.744;23.174;2022-11-20T11:20:04;13.50;99.90
15700;DHT22;7950;42.744;23.174;2022-11-20T11:22:39;13.50;99.90
15700;DHT22;7950;42.744;23.174;2022-11-20T11:25:23;13.40;99.90
15700;DHT22;7950;42.744;23.174;2022-11-20T11:28:20;13.40;99.90
15700;DHT22;7950;42.744;23.174;2022-11-20T11:30:53;13.40;99.90
15700;DHT22;7950;42.744;23.174;2022-11-20T11:33:23;13.40;99.90
15700;DHT22;7950;42.744;23.174;2022-11-20T11:35:53;13.40;99.90
15700;DHT22;7950;42.744;23.174;2022-11-20T11:38:29;13.50;99.90
15700;DHT22;7950;42.744;23.174;2022-11-20T11:40:59;13.40;99.90
15700;DHT22;7950;42.744;23.174;2022-11-20T11:43:30;13.50;99.90
15700;DHT22;7950;42.744;23.174;2022-11-20T11:46:29;13.50;99.90
15700;DHT22;7950;42.744;23.174;2022-11-20T11:48:59;13.40;99.90
15700;DHT22;7950;42.744;23.174;2022-11-20T11:51:34;13.40;99.90
15700;DHT22;7950;42.744;23.174;2022-11-20T11:54:17;13.40;99.90
15700;DHT22;7950;42.744;23.174;2022-11-20T11:56:48;13.40;99.90
15700;DHT22;7950;42.744;23.174;2022-11-20T11:59:25;13.40;99.90
15700;DHT22;7950;42.744;23.174;2022-11-20T12:01:59;13.50;99.90
15700;DHT22;7950;42.744;23.174;2022-11-20T12:04:43;13.40;99.90
15700;DHT22;7950;42.744;23.174;2022-11-20T12:07:19;13.50;99.90
15700;DHT22;7950;42.744;23.174;2022-11-20T12:10:16;13.50;99.90
15700;DHT22;7950;42.744;23.174;2022-11-20T12:12:46;13.50;99.90
15700;DHT22;7950;42.744;23.174;2022-11-20T12:15:25;13.50;99.90
15700;DHT22;7950;42.744;23.174;2022-11-20T12:17:56;13.40;99.90
15700;DHT22;7950;42.744;23.174;2022-11-20T12:20:28;13.40;99.90
15700;DHT22;7950;42.744;23.174;2022-11-20T12:23:04;13.50;99.90
15700;DHT22;7950;42.744;23.174;2022-11-20T12:25:37;13.50;99.90
15700;DHT22;7950;42.744;23.174;2022-11-20T12:28:34;13.50;99.90
15700;DHT22;7950;42.744;23.174;2022-11-20T12:31:19;13.50;99.90
15700;DHT22;7950;42.744;23.174;2022-11-20T12:34:07;13.50;99.90
15700;DHT22;7950;42.744;23.174;2022-11-20T12:40:03;13.50;99.90
15700;DHT22;7950;42.744;23.174;2022-11-20T12:42:46;13.50;99.90
15700;DHT22;7950;42.744;23.174;2022-11-20T12:45:54;13.50;99.90
15700;DHT22;7950;42.744;23.174;2022-11-20T12:48:42;13.50;99.90
15700;DHT22;7950;42.744;23.174;2022-11-20T12:51:26;13.50;99.90
15700;DHT22;7950;42.744;23.174;2022-11-20T12:54:11;13.50;99.90
15700;DHT22;7950;42.744;23.174;2022-11-20T12:56:52;13.40;99.90
15700;DHT22;7950;42.744;23.174;2022-11-20T12:59:39;13.40;99.90
15700;DHT22;7950;42.744;23.174;2022-11-20T13:02:22;13.40;99.90
15700;DHT22;7950;42.744;23.174;2022-11-20T13:05:12;13.40;99.90
15700;DHT22;7950;42.744;23.174;2022-11-20T13:07:47;13.40;99.90
15700;DHT22;7950;42.744;23.174;2022-11-20T13:10:25;13.40;99.90
15700;DHT22;7950;42.744;23.174;2022-11-20T13:13:13;13.50;99.90
15700;DHT22;7950;42.744;23.174;2022-11-20T13:16:00;13.40;99.90
15700;DHT22;7950;42.744;23.174;2022-11-20T13:18:35;13.50;99.90
15700;DHT22;7950;42.744;23.174;2022-11-20T13:21:17;13.40;99.90
15700;DHT22;7950;42.744;23.174;2022-11-20T13:23:47;13.50;99.90
15700;DHT22;7950;42.744;23.174;2022-11-20T13:26:18;13.50;99.90
15700;DHT22;7950;42.744;23.174;2022-11-20T13:29:04;13.40;99.90
15700;DHT22;7950;42.744;23.174;2022-11-20T13:31:39;13.50;99.90
15700;DHT22;7950;42.744;23.174;2022-11-20T13:34:12;13.50;99.90
15700;DHT22;7950;42.744;23.174;2022-11-20T13:36:49;13.50;99.90
15700;DHT22;7950;42.744;23.174;2022-11-20T13:39:27;13.50;99.90
15700;DHT22;7950;42.744;23.174;2022-11-20T13:41:57;13.60;99.90
15700;DHT22;7950;42.744;23.174;2022-11-20T13:44:29;13.40;99.90
15700;DHT22;7950;42.744;23.174;2022-11-20T13:47:01;13.40;99.90
15700;DHT22;7950;42.744;23.174;2022-11-20T13:49:32;13.40;99.90
15700;DHT22;7950;42.744;23.174;2022-11-20T13:55:14;13.40;99.90
15700;DHT22;7950;42.744;23.174;2022-11-20T13:57:59;13.40;99.90
15700;DHT22;7950;42.744;23.174;2022-11-20T14:00:32;13.40;99.90
15700;DHT22;7950;42.744;23.174;2022-11-20T14:03:07;13.30;99.90
15700;DHT22;7950;42.744;23.174;2022-11-20T14:05:45;13.30;99.90
15700;DHT22;7950;42.744;23.174;2022-11-20T14:08:25;13.20;99.90
15700;DHT22;7950;42.744;23.174;2022-11-20T14:11:21;13.10;99.90
15700;DHT22;7950;42.744;23.174;2022-11-20T14:13:56;13.10;99.90
15700;DHT22;7950;42.744;23.174;2022-11-20T14:16:26;13.10;99.90
15700;DHT22;7950;42.744;23.174;2022-11-20T14:18:55;13.10;99.90
15700;DHT22;7950;42.744;23.174;2022-11-20T14:21:26;13.10;99.90
15700;DHT22;7950;42.744;23.174;2022-11-20T14:24:03;13.00;99.90
15700;DHT22;7950;42.744;23.174;2022-11-20T14:26:33;13.10;99.90
15700;DHT22;7950;42.744;23.174;2022-11-20T14:29:02;13.10;99.90
15700;DHT22;7950;42.744;23.174;2022-11-20T14:31:30;13.00;99.90
15700;DHT22;7950;42.744;23.174;2022-11-20T14:33:58;13.00;99.90
15700;DHT22;7950;42.744;23.174;2022-11-20T14:36:27;12.90;99.90
15700;DHT22;7950;42.744;23.174;2022-11-20T14:38:55;13.00;99.90
15700;DHT22;7950;42.744;23.174;2022-11-20T14:41:24;12.90;99.90
15700;DHT22;7950;42.744;23.174;2022-11-20T14:43:56;12.90;99.90
15700;DHT22;7950;42.744;23.174;2022-11-20T14:46:25;12.90;99.90
15700;DHT22;7950;42.744;23.174;2022-11-20T14:48:55;12.90;99.90
15700;DHT22;7950;42.744;23.174;2022-11-20T14:51:28;12.90;99.90
15700;DHT22;7950;42.744;23.174;2022-11-20T14:54:11;12.80;99.90
15700;DHT22;7950;42.744;23.174;2022-11-20T14:56:39;12.80;99.90
15700;DHT22;7950;42.744;23.174;2022-11-20T14:59:09;12.80;99.90
15700;DHT22;7950;42.744;23.174;2022-11-20T15:01:37;12.80;99.90
15700;DHT22;7950;42.744;23.174;2022-11-20T15:04:07;12.70;99.90
15700;DHT22;7950;42.744;23.174;2022-11-20T15:06:37;12.60;99.90
15700;DHT22;7950;42.744;23.174;2022-11-20T15:09:14;12.60;99.90
15700;DHT22;7950;42.744;23.174;2022-11-20T15:11:53;12.50;99.90
15700;DHT22;7950;42.744;23.174;2022-11-20T15:14:48;12.50;99.90
15700;DHT22;7950;42.744;23.174;2022-11-20T15:17:16;12.40;99.90
15700;DHT22;7950;42.744;23.174;2022-11-20T15:19:45;12.40;99.90
15700;DHT22;7950;42.744;23.174;2022-11-20T15:22:13;12.40;99.90
15700;DHT22;7950;42.744;23.174;2022-11-20T15:24:43;12.40;99.90
15700;DHT22;7950;42.744;23.174;2022-11-20T15:27:11;12.40;99.90
15700;DHT22;7950;42.744;23.174;2022-11-20T15:29:39;12.40;99.90
15700;DHT22;7950;42.744;23.174;2022-11-20T15:32:10;12.40;99.90
15700;DHT22;7950;42.744;23.174;2022-11-20T15:34:39;12.30;99.90
15700;DHT22;7950;42.744;23.174;2022-11-20T15:37:08;12.20;99.90
15700;DHT22;7950;42.744;23.174;2022-11-20T15:39:36;12.10;99.90
15700;DHT22;7950;42.744;23.174;2022-11-20T15:42:04;12.00;99.90
15700;DHT22;7950;42.744;23.174;2022-11-20T15:44:32;12.00;99.90
15700;DHT22;7950;42.744;23.174;2022-11-20T15:47:01;11.90;99.90
15700;DHT22;7950;42.744;23.174;2022-11-20T15:49:30;11.90;99.90
15700;DHT22;7950;42.744;23.174;2022-11-20T15:51:59;11.80;99.90
15700;DHT22;7950;42.744;23.174;2022-11-20T15:54:27;11.80;99.90
15700;DHT22;7950;42.744;23.174;2022-11-20T15:56:55;11.80;99.90
15700;DHT22;7950;42.744;23.174;2022-11-20T15:59:23;11.80;99.90
15700;DHT22;7950;42.744;23.174;2022-11-20T16:01:52;11.80;99.90
15700;DHT22;7950;42.744;23.174;2022-11-20T16:04:22;11.80;99.90
15700;DHT22;7950;42.744;23.174;2022-11-20T16:06:52;11.80;99.90
15700;DHT22;7950;42.744;23.174;2022-11-20T16:09:20;11.80;99.90
15700;DHT22;7950;42.744;23.174;2022-11-20T16:11:48;11.80;99.90
15700;DHT22;7950;42.744;23.174;2022-11-20T16:14:16;11.80;99.90